Pine Hill, New York
Current Conditions -  °F | °C
As of 9:55 PM on Wednesday 22 Oct 2014 (Local Time) from KMSV Reporting Station
Overcast Overcast  
Wind Chill: 41°   Ceiling: 4800
Heat Index: 46°   Visibility: 10mi
Dew Point: 45°   Wind: 10mph
Humidity: 93%   Direction: 10°N
Pressure: 29.91"   Gusts: 18mph
Location:  42.13°N, 74.46°W
Report Text: KMSV 230155Z AUTO 01009G16KT 10SM SCT030 BKN048 OVC055 08/07 A2991 RMK AO1 P0001
Loading
Personal Weather Stations






























Interactive Weather Map
Tropical Storm Tracking
New forecast layout! Learn more

10-Day Weather Forecast

Advertisements
Track Severe Weather on mobile